createdAt,value
2022-12-03T00:00:00.823Z,66
2022-12-03T00:01:17.109Z,69
2022-12-03T00:02:33.419Z,69.1
2022-12-03T00:05:06.002Z,70.3
2022-12-03T00:06:22.295Z,70.7
2022-12-03T00:07:38.586Z,64.5
2022-12-03T00:08:54.895Z,71.5
2022-12-03T00:10:11.175Z,69.7
2022-12-03T00:12:43.772Z,66.9
2022-12-03T00:14:00.060Z,68.6
2022-12-03T00:15:15.380Z,70.5
2022-12-03T00:16:31.665Z,67.9
2022-12-03T00:17:47.963Z,69.2
2022-12-03T00:20:20.554Z,65.1
2022-12-03T00:21:35.878Z,71.3
2022-12-03T00:22:51.189Z,67.4
2022-12-03T00:24:07.489Z,65.6
2022-12-03T00:25:23.768Z,68.9
2022-12-03T00:26:40.081Z,72.1
2022-12-03T00:27:56.368Z,72.8
2022-12-03T00:29:12.671Z,72.3
2022-12-03T00:30:28.962Z,69.4
2022-12-03T00:31:45.249Z,73.9
2022-12-03T00:33:01.554Z,66.1
2022-12-03T00:34:17.835Z,66.8
2022-12-03T00:35:33.152Z,75.4
2022-12-03T00:36:48.475Z,76
2022-12-03T00:38:04.757Z,81
2022-12-03T00:39:21.059Z,87.6
2022-12-03T00:40:37.352Z,76.1
2022-12-03T00:41:53.648Z,74.8
2022-12-03T00:43:09.945Z,73.9
2022-12-03T00:44:26.248Z,74.4
2022-12-03T00:45:42.548Z,75.2
2022-12-03T00:46:58.830Z,72.8
2022-12-03T00:48:15.129Z,75
2022-12-03T00:49:31.428Z,73.7
2022-12-03T00:50:47.725Z,71.4
2022-12-03T00:52:04.022Z,79.8
2022-12-03T00:53:19.322Z,72
2022-12-03T00:54:35.614Z,72.9
2022-12-03T00:55:51.918Z,72.6
2022-12-03T00:57:08.211Z,76
2022-12-03T00:58:24.510Z,71.4
2022-12-03T00:59:40.809Z,71.6
2022-12-03T01:00:57.084Z,73.7
2022-12-03T01:02:13.385Z,69.8
2022-12-03T01:03:29.692Z,74.4
2022-12-03T01:04:45.980Z,75.9
2022-12-03T01:06:02.279Z,74.9
2022-12-03T01:07:18.566Z,70.5
2022-12-03T01:08:34.862Z,73.3
2022-12-03T01:09:50.176Z,74.5
2022-12-03T01:11:06.467Z,78.5
2022-12-03T01:12:22.772Z,74.2
2022-12-03T01:13:39.063Z,74.6
2022-12-03T01:14:55.353Z,74.9
2022-12-03T01:16:11.657Z,75.9
2022-12-03T01:17:27.944Z,72.5
2022-12-03T01:18:44.249Z,73.1
2022-12-03T01:20:00.531Z,75.6
2022-12-03T01:21:16.832Z,70.8
2022-12-03T01:22:33.118Z,73.3
2022-12-03T01:23:49.411Z,72.2
2022-12-03T01:25:05.711Z,69.6
2022-12-03T01:26:21.026Z,68.7
2022-12-03T01:27:37.320Z,67.3
2022-12-03T01:28:53.628Z,70.5
2022-12-03T01:30:09.908Z,66.5
2022-12-03T01:31:26.212Z,67.1
2022-12-03T01:32:42.491Z,71.2
2022-12-03T01:33:58.790Z,66.8
2022-12-03T01:35:15.099Z,68.3
2022-12-03T01:36:31.394Z,69.8
2022-12-03T01:37:47.674Z,73.4
2022-12-03T01:39:03.980Z,73.1
2022-12-03T01:40:20.269Z,76.6
2022-12-03T01:41:36.568Z,79.4
2022-12-03T01:44:08.180Z,85.1
2022-12-03T01:45:24.477Z,80.7
2022-12-03T01:46:40.768Z,84.6
2022-12-03T01:47:57.056Z,80.9
2022-12-03T01:49:13.356Z,78.9
2022-12-03T01:50:29.652Z,76.9
2022-12-03T01:51:45.945Z,71.8
2022-12-03T01:53:02.231Z,81.2
2022-12-03T01:54:18.529Z,76.5
2022-12-03T01:55:34.838Z,77.6
2022-12-03T01:56:51.128Z,74.8
2022-12-03T01:58:07.428Z,74.4
2022-12-03T01:59:22.735Z,74.5
2022-12-03T02:00:39.016Z,74.5
2022-12-03T02:01:55.322Z,73
2022-12-03T02:03:11.611Z,65.7
2022-12-03T02:04:27.908Z,67.7
2022-12-03T02:05:44.194Z,67
2022-12-03T02:07:00.494Z,71.5
2022-12-03T02:08:16.804Z,68
2022-12-03T02:10:49.377Z,67.6
2022-12-03T02:12:05.680Z,65
2022-12-03T02:13:21.976Z,66.8
2022-12-03T02:14:38.269Z,65.3
2022-12-03T02:15:53.591Z,64.9
2022-12-03T02:17:09.869Z,69
2022-12-03T02:18:26.178Z,65
2022-12-03T02:19:42.468Z,68.5
2022-12-03T02:20:58.759Z,64.7
2022-12-03T02:22:15.066Z,66.5
2022-12-03T02:23:31.353Z,64.8
2022-12-03T02:24:47.649Z,69.1
2022-12-03T02:26:03.933Z,71.3
2022-12-03T02:27:20.228Z,64.9
2022-12-03T02:28:36.530Z,70.3
2022-12-03T02:29:52.825Z,71.2
2022-12-03T02:31:09.116Z,62.6
2022-12-03T02:32:24.435Z,64.7
2022-12-03T02:33:39.753Z,63
2022-12-03T02:34:56.055Z,63.9
2022-12-03T02:36:12.343Z,58.8
2022-12-03T02:37:28.636Z,64.9
2022-12-03T02:38:44.920Z,59.6
2022-12-03T02:40:01.226Z,61.9
2022-12-03T02:41:17.517Z,57.9
2022-12-03T02:42:33.824Z,54.3
2022-12-03T02:43:50.111Z,60.1
2022-12-03T02:45:06.404Z,60.5
2022-12-03T02:46:22.710Z,65.6
2022-12-03T02:47:39.004Z,63.2
2022-12-03T02:48:55.290Z,59.1
2022-12-03T02:50:10.605Z,60.2
2022-12-03T02:51:26.907Z,61.4
2022-12-03T02:52:43.196Z,58.4
2022-12-03T02:53:59.495Z,62.4
2022-12-03T02:55:15.787Z,62.7
2022-12-03T02:56:32.083Z,61.5
2022-12-03T02:57:48.361Z,63.7
2022-12-03T02:59:04.665Z,57.6
2022-12-03T03:00:20.952Z,66
2022-12-03T03:01:37.256Z,64.6
2022-12-03T03:02:53.557Z,70.6
2022-12-03T03:04:09.850Z,69
2022-12-03T03:05:26.137Z,68.7
2022-12-03T03:06:41.456Z,70.6
2022-12-03T03:07:57.740Z,68.4
2022-12-03T03:09:14.035Z,73.8
2022-12-03T03:10:30.336Z,69.5
2022-12-03T03:11:46.625Z,63.6
2022-12-03T03:13:02.922Z,71.5
2022-12-03T03:14:19.219Z,69.3
2022-12-03T03:15:35.507Z,70.5
2022-12-03T03:16:51.815Z,68.8
2022-12-03T03:18:08.105Z,75.1
2022-12-03T03:19:24.396Z,76.3
2022-12-03T03:20:40.000Z,81
2022-12-03T03:21:56.993Z,81
2022-12-03T03:23:12.300Z,79.3
2022-12-03T03:24:28.605Z,80.1
2022-12-03T03:25:44.898Z,75.4
2022-12-03T03:27:01.200Z,78.4
2022-12-03T03:28:17.489Z,73.9
2022-12-03T03:29:33.774Z,78
2022-12-03T03:30:50.078Z,82
2022-12-03T03:32:06.363Z,80
2022-12-03T03:33:22.673Z,82.5
2022-12-03T03:34:38.952Z,81.8
2022-12-03T03:35:55.249Z,78.6
2022-12-03T03:37:11.545Z,79.6
2022-12-03T03:38:27.843Z,79.2
2022-12-03T03:39:44.269Z,79.2
2022-12-03T03:41:00.569Z,81.6
2022-12-03T03:42:16.845Z,78.2
2022-12-03T03:43:33.143Z,81.9
2022-12-03T03:44:49.453Z,80
2022-12-03T03:46:05.728Z,78.8
2022-12-03T03:47:22.038Z,77.1
2022-12-03T03:48:38.323Z,75.9
2022-12-03T03:49:54.615Z,80.2
2022-12-03T03:51:10.921Z,77.1
2022-12-03T03:52:27.224Z,75.5
2022-12-03T03:53:43.516Z,76.1
2022-12-03T03:54:59.806Z,74.2
2022-12-03T03:56:15.123Z,75.6
2022-12-03T03:57:31.407Z,74.2
2022-12-03T03:58:47.711Z,74.5
2022-12-03T04:01:20.285Z,76.1
2022-12-03T04:02:36.592Z,70.1
2022-12-03T04:03:52.000Z,75.8
2022-12-03T04:05:09.187Z,68.6
2022-12-03T04:06:25.468Z,77.1
2022-12-03T04:07:41.776Z,67.5
2022-12-03T04:08:58.068Z,69.1
2022-12-03T04:10:14.371Z,71
2022-12-03T04:11:30.648Z,69.7
2022-12-03T04:12:45.974Z,70.2
2022-12-03T04:14:02.261Z,75.6
2022-12-03T04:15:18.565Z,74.1
2022-12-03T04:16:34.847Z,74.5
2022-12-03T04:17:51.149Z,72.9
2022-12-03T04:19:07.439Z,77.6
2022-12-03T04:20:23.732Z,78
2022-12-03T04:21:40.030Z,69.1
2022-12-03T04:22:56.320Z,75.8
2022-12-03T04:24:12.625Z,75.3
2022-12-03T04:25:28.912Z,81
2022-12-03T04:26:45.209Z,75.3
2022-12-03T04:28:01.507Z,79.6
2022-12-03T04:29:16.823Z,72.8
2022-12-03T04:30:33.113Z,73.2
2022-12-03T04:31:49.407Z,76.5
2022-12-03T04:33:05.709Z,77.4
2022-12-03T04:34:22.011Z,74.8
2022-12-03T04:35:38.300Z,72.4
2022-12-03T04:36:54.592Z,76.5
2022-12-03T04:38:10.889Z,72.3
2022-12-03T04:39:27.176Z,73.9
2022-12-03T04:40:43.480Z,73.1
2022-12-03T04:41:59.773Z,75.3
2022-12-03T04:43:16.069Z,72.8
2022-12-03T04:44:32.359Z,71
2022-12-03T04:45:47.670Z,72
2022-12-03T04:47:03.959Z,73.4
2022-12-03T04:48:20.259Z,71.7
2022-12-03T04:49:36.560Z,73.4
2022-12-03T04:50:52.844Z,73.7
2022-12-03T04:52:09.148Z,71.4
2022-12-03T04:53:25.448Z,65.6
2022-12-03T04:54:41.728Z,66.5
2022-12-03T04:55:58.025Z,69.1
2022-12-03T04:57:14.322Z,70.5
2022-12-03T04:58:30.624Z,75.8
2022-12-03T04:59:46.927Z,69.7
2022-12-03T05:01:03.208Z,69.3
2022-12-03T05:02:18.529Z,63.6
2022-12-03T05:03:34.821Z,63.8
2022-12-03T05:04:51.123Z,67.8
2022-12-03T05:06:07.409Z,67.2
2022-12-03T05:07:23.701Z,71
2022-12-03T05:08:39.994Z,63
2022-12-03T05:09:56.294Z,65.9
2022-12-03T05:11:12.589Z,67.1
2022-12-03T05:12:28.891Z,65.4
2022-12-03T05:13:45.184Z,62.9
2022-12-03T05:15:01.484Z,69.9
2022-12-03T05:16:17.774Z,64
2022-12-03T05:17:34.060Z,62.5
2022-12-03T05:18:49.378Z,68.5
2022-12-03T05:20:05.667Z,63.1
2022-12-03T05:21:21.961Z,64.7
2022-12-03T05:22:38.264Z,68.6
2022-12-03T05:23:54.546Z,67.3
2022-12-03T05:25:10.850Z,68
2022-12-03T05:26:27.138Z,69.8
2022-12-03T05:27:43.447Z,70.7
2022-12-03T05:30:16.022Z,65.8
2022-12-03T05:31:32.325Z,60.8
2022-12-03T05:32:48.613Z,64.2
2022-12-03T05:34:04.907Z,65.3
2022-12-03T05:35:20.237Z,64.3
2022-12-03T05:36:36.530Z,66
2022-12-03T05:37:52.808Z,60.8
2022-12-03T05:39:09.122Z,62.1
2022-12-03T05:40:25.410Z,60.3
2022-12-03T05:41:41.698Z,58.4
2022-12-03T05:42:58.009Z,62.5
2022-12-03T05:44:14.285Z,60.2
2022-12-03T05:45:30.587Z,58.5
2022-12-03T05:46:46.893Z,52.5
2022-12-03T05:48:03.169Z,56
2022-12-03T05:49:19.467Z,51.5
2022-12-03T05:50:35.777Z,52.9
2022-12-03T05:53:07.377Z,55.1
2022-12-03T05:54:23.678Z,57.3
2022-12-03T05:55:39.975Z,52.6
2022-12-03T05:56:56.258Z,56.7
2022-12-03T05:58:12.561Z,56.3
2022-12-03T05:59:28.847Z,50
2022-12-03T06:00:45.139Z,55.1
2022-12-03T06:02:01.446Z,57
2022-12-03T06:03:17.747Z,54.2
2022-12-03T06:04:34.037Z,56.8
2022-12-03T06:05:50.321Z,58.1
2022-12-03T06:07:06.623Z,61.2
2022-12-03T06:08:21.941Z,57.9
2022-12-03T06:09:38.239Z,58.7
2022-12-03T06:10:54.532Z,57
2022-12-03T06:12:10.823Z,54.9
2022-12-03T06:13:27.118Z,53.2
2022-12-03T06:14:43.401Z,50.5
2022-12-03T06:15:59.708Z,51
2022-12-03T06:17:15.994Z,50.8
2022-12-03T06:18:32.290Z,53.9
2022-12-03T06:19:48.593Z,55
2022-12-03T06:21:04.890Z,51.1
2022-12-03T06:22:21.125Z,46
2022-12-03T06:23:37.414Z,48.9
2022-12-03T06:24:52.724Z,52.9
2022-12-03T06:26:08.995Z,53.7
2022-12-03T06:27:25.230Z,50.3
2022-12-03T06:28:41.460Z,48.9
2022-12-03T06:29:57.764Z,51
2022-12-03T06:31:14.021Z,49.3
2022-12-03T06:32:30.267Z,47.4
2022-12-03T06:33:46.492Z,51.5
2022-12-03T06:35:02.733Z,51.9
2022-12-03T06:36:18.978Z,46
2022-12-03T06:37:35.221Z,50.8
2022-12-03T06:38:51.456Z,46.3
2022-12-03T06:40:07.711Z,46.5
2022-12-03T06:41:22.968Z,46.8
2022-12-03T06:42:39.209Z,47
2022-12-03T06:43:55.440Z,47.8
2022-12-03T06:45:11.000Z,44.1
2022-12-03T06:46:27.931Z,44.7
2022-12-03T06:47:44.161Z,45.9
2022-12-03T06:48:59.440Z,43.5
2022-12-03T06:50:15.662Z,43.7
2022-12-03T06:51:31.907Z,45.5
2022-12-03T06:52:48.150Z,45.1
2022-12-03T06:54:04.398Z,44.4
2022-12-03T06:55:20.631Z,45.3
2022-12-03T06:56:36.872Z,46.3
2022-12-03T06:57:53.123Z,46
2022-12-03T06:59:09.366Z,46.7
2022-12-03T07:00:25.592Z,40.8
2022-12-03T07:01:41.839Z,42.6
2022-12-03T07:02:58.089Z,42.8
2022-12-03T07:04:14.326Z,42.9
2022-12-03T07:05:29.583Z,45.8
2022-12-03T07:06:45.820Z,43
2022-12-03T07:08:02.052Z,44.6
2022-12-03T07:09:18.295Z,43.2
2022-12-03T07:10:34.546Z,41.9
2022-12-03T07:11:50.788Z,42.2
2022-12-03T07:13:07.018Z,41.4
2022-12-03T07:14:23.267Z,44.4
2022-12-03T07:15:39.514Z,45.6
2022-12-03T07:16:55.752Z,43
2022-12-03T07:18:12.000Z,43.8
2022-12-03T07:19:28.224Z,41.9
2022-12-03T07:20:44.471Z,45.4
2022-12-03T07:21:59.740Z,42.5
2022-12-03T07:23:15.972Z,45
2022-12-03T07:24:32.221Z,42.9
2022-12-03T07:25:48.458Z,43.1
2022-12-03T07:28:20.941Z,45.5
2022-12-03T07:29:37.184Z,43.9
2022-12-03T07:30:53.420Z,45.1
2022-12-03T07:32:09.655Z,44.4
2022-12-03T07:33:25.893Z,43.1
2022-12-03T07:34:42.131Z,43.2
2022-12-03T07:35:58.392Z,45.5
2022-12-03T07:37:14.622Z,42.4
2022-12-03T07:38:29.884Z,43
2022-12-03T07:39:46.121Z,45
2022-12-03T07:41:02.367Z,43.5
2022-12-03T07:42:18.613Z,45.7
2022-12-03T07:43:34.854Z,48.6
2022-12-03T07:44:51.078Z,45.9
2022-12-03T07:46:07.316Z,43.7
2022-12-03T07:47:23.558Z,46.4
2022-12-03T07:48:39.819Z,42.8
2022-12-03T07:49:56.044Z,44.1
2022-12-03T07:51:12.288Z,48.3
2022-12-03T07:52:28.524Z,46.8
2022-12-03T07:53:44.765Z,47.4
2022-12-03T07:55:00.030Z,44.8
2022-12-03T07:56:16.276Z,46.2
2022-12-03T07:57:32.522Z,45.9
2022-12-03T07:58:48.749Z,44.8
2022-12-03T08:00:04.999Z,45.1
2022-12-03T08:01:21.244Z,46.6
2022-12-03T08:02:37.473Z,45.1
2022-12-03T08:03:53.716Z,44.9
2022-12-03T08:05:09.960Z,47.5
2022-12-03T08:06:26.203Z,43.1
2022-12-03T08:07:42.443Z,42.7
2022-12-03T08:08:58.691Z,44.7
2022-12-03T08:10:14.924Z,42.7
2022-12-03T08:11:30.190Z,41.5
2022-12-03T08:12:46.430Z,38.9
2022-12-03T08:14:02.663Z,43.4
2022-12-03T08:15:18.909Z,44.2
2022-12-03T08:16:35.138Z,41.3
2022-12-03T08:19:07.629Z,42.7
2022-12-03T08:20:23.874Z,40.6
2022-12-03T08:21:40.105Z,41.4
2022-12-03T08:22:56.346Z,45.5
2022-12-03T08:24:12.579Z,43.9
2022-12-03T08:25:28.829Z,40.3
2022-12-03T08:26:45.068Z,41.7
2022-12-03T08:28:00.333Z,42.2
2022-12-03T08:29:16.578Z,42.4
2022-12-03T08:31:49.055Z,43
2022-12-03T08:33:05.290Z,44.5
2022-12-03T08:34:21.526Z,46.2
2022-12-03T08:35:37.778Z,46.1
2022-12-03T08:36:54.011Z,42
2022-12-03T08:38:10.250Z,44.9
2022-12-03T08:39:26.498Z,43.7
2022-12-03T08:40:42.736Z,42.5
2022-12-03T08:44:31.471Z,47.2
2022-12-03T08:45:46.737Z,46.2
2022-12-03T08:47:01.975Z,46.3
2022-12-03T08:48:18.217Z,48.5
2022-12-03T08:49:34.465Z,46.6
2022-12-03T08:50:50.706Z,47.8
2022-12-03T08:52:06.946Z,46
2022-12-03T08:53:23.186Z,45.7
2022-12-03T08:54:39.426Z,52.9
2022-12-03T08:57:11.909Z,46.9
2022-12-03T08:58:28.153Z,45.6
2022-12-03T08:59:44.395Z,47.6
2022-12-03T09:01:00.636Z,49.1
2022-12-03T09:02:16.881Z,49.2
2022-12-03T09:03:32.125Z,47.3
2022-12-03T09:04:48.377Z,49
2022-12-03T09:06:04.623Z,50.3
2022-12-03T09:07:20.847Z,52.1
2022-12-03T09:08:37.099Z,52.5
2022-12-03T09:09:53.340Z,50.4
2022-12-03T09:11:09.582Z,49.8
2022-12-03T09:12:25.818Z,51.4
2022-12-03T09:13:41.078Z,49.2
2022-12-03T09:14:57.454Z,49.1
2022-12-03T09:16:13.681Z,50.9
2022-12-03T09:17:29.935Z,47.5
2022-12-03T09:18:46.165Z,48.4
2022-12-03T09:20:02.412Z,46.6
2022-12-03T09:21:18.654Z,45.6
2022-12-03T09:22:34.898Z,46.3
2022-12-03T09:23:51.128Z,49
2022-12-03T09:25:07.380Z,46.4
2022-12-03T09:26:23.618Z,45.6
2022-12-03T09:27:39.846Z,47.3
2022-12-03T09:28:56.000Z,44.5
2022-12-03T09:31:28.585Z,44.1
2022-12-03T09:32:43.839Z,44.1
2022-12-03T09:34:00.072Z,44.7
2022-12-03T09:35:16.310Z,44.6
2022-12-03T09:36:32.556Z,46
2022-12-03T09:37:48.807Z,45.5
2022-12-03T09:39:05.034Z,49.2
2022-12-03T09:41:37.510Z,47.8
2022-12-03T09:42:53.753Z,48.4
2022-12-03T09:44:10.008Z,49.2
2022-12-03T09:45:26.244Z,49.9
2022-12-03T09:47:58.721Z,48.6
2022-12-03T09:49:13.984Z,48.7
2022-12-03T09:50:29.250Z,50.4
2022-12-03T09:51:45.491Z,50
2022-12-03T09:53:01.720Z,52.1
2022-12-03T09:54:17.959Z,53.3
2022-12-03T09:55:34.210Z,51.5
2022-12-03T09:56:50.452Z,54.7
2022-12-03T09:58:06.697Z,55.8
2022-12-03T09:59:22.934Z,53.1
2022-12-03T10:00:39.164Z,55.7
2022-12-03T10:01:55.405Z,54.1
2022-12-03T10:03:10.668Z,54.6
2022-12-03T10:04:27.045Z,52.1
2022-12-03T10:05:43.267Z,54.7
2022-12-03T10:06:59.508Z,54.4
2022-12-03T10:08:15.758Z,55.7
2022-12-03T10:09:31.998Z,58.7
2022-12-03T10:10:48.246Z,60.4
2022-12-03T10:12:04.491Z,56
2022-12-03T10:14:36.968Z,56.1
2022-12-03T10:15:53.204Z,56.5
2022-12-03T10:17:09.453Z,55.9
2022-12-03T10:18:25.684Z,54.9
2022-12-03T10:19:41.936Z,54.9
2022-12-03T10:20:57.191Z,54.3
2022-12-03T10:22:13.427Z,52.5
2022-12-03T10:23:29.670Z,59.2
2022-12-03T10:24:45.909Z,57.8
2022-12-03T10:26:02.140Z,57.3
2022-12-03T10:27:18.384Z,55.3
2022-12-03T10:28:34.635Z,55.7
2022-12-03T10:29:50.878Z,55.5
2022-12-03T10:31:07.111Z,54.6
2022-12-03T10:32:23.354Z,55.4
2022-12-03T10:33:39.598Z,57.2
2022-12-03T10:34:55.827Z,55.7
2022-12-03T10:36:12.075Z,55.1
2022-12-03T10:37:27.322Z,58
2022-12-03T10:39:59.824Z,54.6
2022-12-03T10:41:16.046Z,53.6
2022-12-03T10:42:32.300Z,56.5
2022-12-03T10:43:48.542Z,56.9
2022-12-03T10:45:04.000Z,56.9
2022-12-03T10:46:21.018Z,54.8
2022-12-03T10:47:37.257Z,54.4
2022-12-03T10:48:53.496Z,55.6
2022-12-03T10:50:09.741Z,56.5
2022-12-03T10:52:42.224Z,56
2022-12-03T10:53:57.470Z,55.6
2022-12-03T10:55:13.712Z,54.8
2022-12-03T10:56:29.962Z,55.9
2022-12-03T10:57:46.206Z,55.8
2022-12-03T10:59:02.455Z,52.9
2022-12-03T11:00:18.689Z,56.8
2022-12-03T11:01:34.923Z,55.1
2022-12-03T11:02:51.169Z,53.6
2022-12-03T11:04:07.411Z,56.9
2022-12-03T11:05:22.673Z,57.8
2022-12-03T11:06:38.919Z,54.9
2022-12-03T11:07:55.147Z,59
2022-12-03T11:09:11.395Z,55.2
2022-12-03T11:10:27.633Z,58.8
2022-12-03T11:11:43.875Z,58.3
2022-12-03T11:13:00.116Z,56
2022-12-03T11:14:16.361Z,54.8
2022-12-03T11:16:48.831Z,53.6
2022-12-03T11:18:05.090Z,54.5
2022-12-03T11:19:21.321Z,53.5
2022-12-03T11:20:37.568Z,53.3
2022-12-03T11:21:52.820Z,56.1
2022-12-03T11:23:09.058Z,55.8
2022-12-03T11:24:25.298Z,56.7
2022-12-03T11:25:41.538Z,55.3
2022-12-03T11:26:57.785Z,57.5
2022-12-03T11:28:14.036Z,55.7
2022-12-03T11:29:30.256Z,55.7
2022-12-03T11:30:46.505Z,51.8
2022-12-03T11:32:02.757Z,57.1
2022-12-03T11:33:18.989Z,54.5
2022-12-03T11:34:35.239Z,55
2022-12-03T11:35:51.461Z,55.7
2022-12-03T11:38:23.959Z,53.3
2022-12-03T11:39:39.201Z,56
2022-12-03T11:40:55.440Z,52.6
2022-12-03T11:43:27.925Z,53.6
2022-12-03T11:46:00.410Z,55.8
2022-12-03T11:47:15.666Z,55.9
2022-12-03T11:48:30.929Z,55.7
2022-12-03T11:49:47.175Z,53.7
2022-12-03T11:51:03.410Z,55.3
2022-12-03T11:52:19.662Z,59.1
2022-12-03T11:53:35.888Z,53.2
2022-12-03T11:54:52.142Z,57.7
2022-12-03T11:56:08.381Z,55.3
2022-12-03T11:57:24.610Z,53.6
2022-12-03T11:58:40.868Z,55.2
2022-12-03T11:59:57.094Z,55
2022-12-03T12:01:12.357Z,54.7
2022-12-03T12:02:27.626Z,57.6
2022-12-03T12:03:43.865Z,53.2
2022-12-03T12:05:00.094Z,54.6
2022-12-03T12:06:16.355Z,55.3
2022-12-03T12:07:32.576Z,53.6
2022-12-03T12:08:48.835Z,53.4
2022-12-03T12:10:05.068Z,56.8
2022-12-03T12:11:21.312Z,56.6
2022-12-03T12:12:37.546Z,54.7
2022-12-03T12:13:53.790Z,57.8
2022-12-03T12:15:10.029Z,55.1
2022-12-03T12:16:26.271Z,51.4
2022-12-03T12:17:42.520Z,55.5
2022-12-03T12:18:57.770Z,56.2
2022-12-03T12:20:14.006Z,55.6
2022-12-03T12:21:30.254Z,54.3
2022-12-03T12:22:46.486Z,53.3
2022-12-03T12:24:02.734Z,53.8
2022-12-03T12:25:18.976Z,56.5
2022-12-03T12:26:35.215Z,57.5
2022-12-03T12:27:51.460Z,60.1
2022-12-03T12:29:07.703Z,59.6
2022-12-03T12:30:23.943Z,60.1
2022-12-03T12:31:40.168Z,58.8
2022-12-03T12:32:56.418Z,62.4
2022-12-03T12:34:12.665Z,60.2
2022-12-03T12:35:27.918Z,60.1
2022-12-03T12:36:44.157Z,59.6
2022-12-03T12:39:16.633Z,59.9
2022-12-03T12:40:32.876Z,59.6
2022-12-03T12:41:49.129Z,62.3
2022-12-03T12:43:05.360Z,58.6
2022-12-03T12:44:21.601Z,61.4
2022-12-03T12:45:37.837Z,62.6
2022-12-03T12:46:54.091Z,65.1
2022-12-03T12:48:10.336Z,66.6
2022-12-03T12:49:26.568Z,67.7
2022-12-03T12:50:42.812Z,69.8
2022-12-03T12:51:58.074Z,70.3
2022-12-03T12:53:14.309Z,71
2022-12-03T12:54:30.536Z,71.6
2022-12-03T12:55:46.779Z,73.7
2022-12-03T12:57:03.031Z,75
2022-12-03T12:58:19.272Z,70.6
2022-12-03T12:59:35.505Z,75
2022-12-03T13:00:51.741Z,71.3
2022-12-03T13:02:07.989Z,75.9
2022-12-03T13:03:24.237Z,72.9
2022-12-03T13:04:40.478Z,71.3
2022-12-03T13:05:56.722Z,76.5
2022-12-03T13:07:12.962Z,78.2
2022-12-03T13:08:28.215Z,77.9
2022-12-03T13:09:44.456Z,73.2
2022-12-03T13:11:00.697Z,74.1
2022-12-03T13:12:16.931Z,74.3
2022-12-03T13:13:33.175Z,77.1
2022-12-03T13:14:49.408Z,78.5
2022-12-03T13:16:05.648Z,70.9
2022-12-03T13:17:21.905Z,70.6
2022-12-03T13:18:38.147Z,68.2
2022-12-03T13:19:54.380Z,75.3
2022-12-03T13:21:10.623Z,75.9
2022-12-03T13:23:43.096Z,73.5
2022-12-03T13:24:58.361Z,73.4
2022-12-03T13:26:14.595Z,70.1
2022-12-03T13:27:30.836Z,70.4
2022-12-03T13:28:47.083Z,72
2022-12-03T13:30:03.333Z,69.6
2022-12-03T13:31:19.573Z,72
2022-12-03T13:32:35.813Z,74.9
2022-12-03T13:33:52.040Z,70.4
2022-12-03T13:35:08.278Z,72
2022-12-03T13:36:24.525Z,72.5
2022-12-03T13:37:40.771Z,71.3
2022-12-03T13:38:57.007Z,74.4
2022-12-03T13:40:13.245Z,74
2022-12-03T13:41:28.512Z,76
2022-12-03T13:42:44.758Z,72.3
2022-12-03T13:44:00.999Z,74.8
2022-12-03T13:45:17.232Z,75.5
2022-12-03T13:46:33.473Z,77.9
2022-12-03T13:47:49.722Z,78.5
2022-12-03T13:49:05.957Z,76.9
2022-12-03T13:50:22.195Z,75.8
2022-12-03T13:51:38.433Z,77.6
2022-12-03T13:52:54.667Z,78.5
2022-12-03T13:54:10.908Z,76.1
2022-12-03T13:55:27.152Z,75.7
2022-12-03T13:56:43.396Z,76.3
2022-12-03T13:57:58.653Z,78
2022-12-03T13:59:14.887Z,79
2022-12-03T14:00:31.139Z,77.8
2022-12-03T14:01:47.374Z,79.1
2022-12-03T14:03:03.629Z,81.4
2022-12-03T14:04:19.864Z,82.4
2022-12-03T14:05:36.112Z,83.5
2022-12-03T14:06:52.346Z,83.6
2022-12-03T14:08:08.580Z,84.3
2022-12-03T14:09:24.821Z,80.5
2022-12-03T14:10:41.065Z,85
2022-12-03T14:11:57.306Z,84.7
2022-12-03T14:13:13.545Z,85.4
2022-12-03T14:14:29.781Z,88.6
2022-12-03T14:15:45.036Z,83.5
2022-12-03T14:17:01.285Z,88.9
2022-12-03T14:18:17.526Z,84.6
2022-12-03T14:19:33.778Z,85.5
2022-12-03T14:20:50.000Z,88.6
2022-12-03T14:22:06.241Z,90.4
2022-12-03T14:23:22.488Z,90.2
2022-12-03T14:24:38.735Z,92.4
2022-12-03T14:25:54.963Z,92.7
2022-12-03T14:27:11.208Z,88
2022-12-03T14:28:27.454Z,91.1
2022-12-03T14:29:43.705Z,94.1
2022-12-03T14:30:59.930Z,95.1
2022-12-03T14:33:32.417Z,94.9
2022-12-03T14:34:47.680Z,93.7
2022-12-03T14:36:03.923Z,98.3
2022-12-03T14:37:20.165Z,97.3
2022-12-03T14:38:36.389Z,93.9
2022-12-03T14:39:52.645Z,97.1
2022-12-03T14:41:08.876Z,93.8
2022-12-03T14:42:25.129Z,92.9
2022-12-03T14:43:41.361Z,96.9
2022-12-03T14:44:57.610Z,96.1
2022-12-03T14:46:13.839Z,97
2022-12-03T14:48:46.337Z,98.3
2022-12-03T14:50:02.570Z,96.1
2022-12-03T14:51:18.919Z,97.7
2022-12-03T14:52:35.164Z,102.6
2022-12-03T14:53:51.407Z,100.2
2022-12-03T14:55:07.647Z,101.6
2022-12-03T14:56:23.895Z,103.7
2022-12-03T14:57:40.140Z,101
2022-12-03T14:58:56.372Z,104.8
2022-12-03T15:00:12.625Z,102
2022-12-03T15:01:28.850Z,106.2
2022-12-03T15:04:01.335Z,100.6
2022-12-03T15:05:17.588Z,100.3
2022-12-03T15:06:33.829Z,102.9
2022-12-03T15:07:50.191Z,105.1
2022-12-03T15:09:06.423Z,106.7
2022-12-03T15:10:22.665Z,107.9
2022-12-03T15:11:38.899Z,114.9
2022-12-03T15:12:55.147Z,113.1
2022-12-03T15:14:11.382Z,107.3
2022-12-03T15:15:27.626Z,116.3
2022-12-03T15:16:43.863Z,110.1
2022-12-03T15:18:00.115Z,102.4
2022-12-03T15:19:16.358Z,109
2022-12-03T15:20:31.610Z,111.5
2022-12-03T15:21:47.865Z,111.4
2022-12-03T15:23:04.104Z,109.6
2022-12-03T15:24:20.345Z,109.2
2022-12-03T15:25:36.575Z,117
2022-12-03T15:26:52.829Z,112.5
2022-12-03T15:28:09.075Z,114.2
2022-12-03T15:29:25.312Z,111
2022-12-03T15:31:57.862Z,105.5
2022-12-03T15:33:14.103Z,109.2
2022-12-03T15:34:30.339Z,108.4
2022-12-03T15:35:46.639Z,113.9
2022-12-03T15:37:01.943Z,116.1
2022-12-03T15:38:18.232Z,115.1
2022-12-03T15:39:34.547Z,112.5
2022-12-03T15:40:50.825Z,110.4
2022-12-03T15:42:07.000Z,109.6
2022-12-03T15:43:23.000Z,112
2022-12-03T15:44:39.709Z,108.8
2022-12-03T15:45:56.004Z,108.3
2022-12-03T15:47:12.301Z,109.9
2022-12-03T15:48:28.611Z,108.7
2022-12-03T15:49:44.897Z,113.1
2022-12-03T15:52:17.484Z,112.2
2022-12-03T15:53:32.790Z,110.2
2022-12-03T15:54:49.089Z,112.1
2022-12-03T15:56:05.388Z,115.3
2022-12-03T15:57:21.672Z,114.8
2022-12-03T15:58:37.976Z,111.7
2022-12-03T15:59:54.274Z,109.7
2022-12-03T16:01:10.568Z,112.1
2022-12-03T16:02:26.870Z,114.7
2022-12-03T16:03:43.149Z,112.6
2022-12-03T16:04:59.447Z,111
2022-12-03T16:06:15.739Z,114.4
2022-12-03T16:07:32.046Z,110.5
2022-12-03T16:08:48.328Z,113.7
2022-12-03T16:10:03.636Z,114.4
2022-12-03T16:11:19.932Z,115.1
2022-12-03T16:12:36.234Z,117.4
2022-12-03T16:13:52.539Z,117
2022-12-03T16:15:08.823Z,113.5
2022-12-03T16:16:25.111Z,107.7
2022-12-03T16:17:41.413Z,108.2
2022-12-03T16:20:13.997Z,109.4
2022-12-03T16:21:30.309Z,119.4
2022-12-03T16:22:46.592Z,119.7
2022-12-03T16:24:02.886Z,115.6
2022-12-03T16:25:19.178Z,117.7
2022-12-03T16:26:35.596Z,118.2
2022-12-03T16:27:50.919Z,120.5
2022-12-03T16:29:07.212Z,111.9
2022-12-03T16:30:23.510Z,120.2
2022-12-03T16:31:39.798Z,118.4
2022-12-03T16:32:56.085Z,115.4
2022-12-03T16:35:28.672Z,117.3
2022-12-03T16:36:44.966Z,120
2022-12-03T16:38:01.269Z,120.1
2022-12-03T16:39:17.563Z,120.2
2022-12-03T16:40:33.856Z,121.2
2022-12-03T16:41:50.158Z,123.5
2022-12-03T16:43:06.454Z,117.3
2022-12-03T16:44:21.762Z,121
2022-12-03T16:45:38.048Z,116.3
2022-12-03T16:46:54.343Z,118.2
2022-12-03T16:48:10.654Z,117.3
2022-12-03T16:50:43.230Z,118.3
2022-12-03T16:51:59.524Z,122.7
2022-12-03T16:53:15.825Z,122.1
2022-12-03T16:54:32.115Z,118.8
2022-12-03T16:55:48.421Z,116.4
2022-12-03T16:57:04.704Z,121.7
2022-12-03T16:58:21.007Z,117.2
2022-12-03T16:59:37.313Z,117.7
2022-12-03T17:00:52.605Z,118.1
2022-12-03T17:02:08.905Z,114.1
2022-12-03T17:03:25.204Z,110.8
2022-12-03T17:04:41.489Z,110.1
2022-12-03T17:05:57.798Z,111.3
2022-12-03T17:07:14.085Z,108.7
2022-12-03T17:08:30.384Z,110.5
2022-12-03T17:09:46.674Z,106
2022-12-03T17:11:02.978Z,106.6
2022-12-03T17:12:19.270Z,105.8
2022-12-03T17:13:35.554Z,103.5
2022-12-03T17:14:51.856Z,98.2
2022-12-03T17:16:08.150Z,100.9
2022-12-03T17:17:23.454Z,100.5
2022-12-03T17:18:39.768Z,99.7
2022-12-03T17:19:56.061Z,100.3
2022-12-03T17:21:12.348Z,104.2
2022-12-03T17:22:28.647Z,102.1
2022-12-03T17:23:44.943Z,93.8
2022-12-03T17:25:01.242Z,95.8
2022-12-03T17:26:17.530Z,106.4
2022-12-03T17:27:33.823Z,103.8
2022-12-03T17:28:50.108Z,106
2022-12-03T17:30:06.418Z,102.4
2022-12-03T17:31:22.704Z,99.2
2022-12-03T17:32:39.013Z,99.3
2022-12-03T17:33:54.316Z,100.6
2022-12-03T17:35:10.611Z,96.1
2022-12-03T17:36:26.900Z,103.8
2022-12-03T17:37:43.209Z,105.2
2022-12-03T17:38:59.497Z,105.5